Time;durP1;ratioP1;P1;durP2;ratioP2;P2;SDS_P1;SDS_P2;PMS_P1;PMS_P2;Temp;Humidity;BMP_temperature;BMP_pressure;BME280_temperature;BME280_humidity;BME280_pressure;Samples;Min_cycle;Max_cycle;Signal;HPM_P1;HPM_P2
2022/07/18 00:00:45;;;;;;;4.10;3.67;;;17.10;51.60;;;;;;4986038;28;20185;-58
2022/07/18 00:03:11;;;;;;;3.97;3.50;;;17.00;51.70;;;;;;4984430;28;20276;-59
2022/07/18 00:05:36;;;;;;;4.23;3.83;;;17.00;51.80;;;;;;4983054;28;20177;-59
2022/07/18 00:08:02;;;;;;;3.93;3.53;;;17.00;52.10;;;;;;4988159;28;20195;-59
2022/07/18 00:10:28;;;;;;;4.43;4.00;;;16.90;52.10;;;;;;4983464;28;20185;-59
2022/07/18 00:12:54;;;;;;;4.57;4.23;;;16.90;52.10;;;;;;4979132;28;20247;-59
2022/07/18 00:15:19;;;;;;;4.97;3.70;;;16.80;52.10;;;;;;4986541;28;20250;-59
2022/07/18 00:17:45;;;;;;;4.90;3.70;;;16.80;52.20;;;;;;4988484;28;20201;-59
2022/07/18 00:20:12;;;;;;;3.73;3.43;;;16.70;52.10;;;;;;4987602;28;20893;-60
2022/07/18 00:22:38;;;;;;;4.23;3.93;;;16.70;52.80;;;;;;4981051;28;20796;-59
2022/07/18 00:25:04;;;;;;;4.33;3.83;;;16.70;52.40;;;;;;4986893;28;20470;-59
2022/07/18 00:27:30;;;;;;;4.50;4.10;;;16.70;52.40;;;;;;4979985;28;20464;-60
2022/07/18 00:29:55;;;;;;;7.63;3.90;;;16.60;52.20;;;;;;4984315;28;20440;-60
2022/07/18 00:32:21;;;;;;;4.20;3.80;;;16.60;52.20;;;;;;4983306;28;20192;-59
2022/07/18 00:34:46;;;;;;;4.37;3.97;;;16.60;52.40;;;;;;4987270;28;20705;-59
2022/07/18 00:37:13;;;;;;;9.37;4.60;;;16.50;52.30;;;;;;4986152;28;20295;-59
2022/07/18 00:39:39;;;;;;;5.53;3.90;;;16.50;52.60;;;;;;4987026;28;20550;-59
2022/07/18 00:42:04;;;;;;;4.73;4.00;;;16.50;52.60;;;;;;4983933;28;20443;-59
2022/07/18 00:44:30;;;;;;;4.60;4.20;;;16.50;52.80;;;;;;4982578;28;20721;-59
2022/07/18 00:46:59;;;;;;;4.93;4.10;;;16.50;52.90;;;;;;4987066;28;20612;-59
2022/07/18 00:49:25;;;;;;;4.10;3.70;;;16.40;53.00;;;;;;4982306;28;20848;-59
2022/07/18 00:51:50;;;;;;;4.50;4.10;;;16.40;53.20;;;;;;4985971;28;20472;-60
2022/07/18 00:54:17;;;;;;;5.90;4.17;;;16.40;53.30;;;;;;4975581;28;20612;-59
2022/07/18 00:56:43;;;;;;;4.33;3.93;;;16.30;53.30;;;;;;4978669;28;20886;-60
2022/07/18 00:59:11;;;;;;;6.17;4.87;;;16.20;53.30;;;;;;4977727;28;20578;-58
2022/07/18 01:01:45;;;;;;;4.37;4.00;;;16.20;53.40;;;;;;4980973;28;20523;-60
2022/07/18 01:04:14;;;;;;;4.63;4.23;;;16.10;53.40;;;;;;4983178;28;20523;-59
2022/07/18 01:06:41;;;;;;;5.20;4.23;;;16.10;53.50;;;;;;4985549;28;20451;-58
2022/07/18 01:09:07;;;;;;;4.10;3.60;;;16.00;53.60;;;;;;4982608;28;20526;-58
2022/07/18 01:11:34;;;;;;;4.27;3.87;;;16.00;53.70;;;;;;4982675;28;20439;-60
2022/07/18 01:14:02;;;;;;;4.37;3.97;;;16.00;53.80;;;;;;4980304;28;20468;-58
2022/07/18 01:16:28;;;;;;;5.67;4.10;;;15.90;53.70;;;;;;4985683;28;21031;-58
2022/07/18 01:18:53;;;;;;;5.03;4.47;;;15.90;53.70;;;;;;4984710;28;20440;-59
2022/07/18 01:21:19;;;;;;;4.37;4.03;;;15.90;53.80;;;;;;4980676;28;20178;-58
2022/07/18 01:23:45;;;;;;;5.73;3.90;;;15.80;54.10;;;;;;4980556;28;20713;-58
2022/07/18 01:26:15;;;;;;;6.73;4.50;;;15.80;54.20;;;;;;4980860;28;20242;-59
2022/07/18 01:28:42;;;;;;;5.37;4.10;;;15.80;54.30;;;;;;4981074;28;20190;-59
2022/07/18 01:31:08;;;;;;;4.60;4.20;;;15.70;54.30;;;;;;4982934;28;20862;-59
2022/07/18 01:33:34;;;;;;;4.30;3.90;;;15.70;54.30;;;;;;4981543;28;20460;-60
2022/07/18 01:36:01;;;;;;;4.23;3.93;;;15.70;54.50;;;;;;4981649;28;20225;-59
2022/07/18 01:38:28;;;;;;;4.10;3.80;;;15.60;54.50;;;;;;4979049;28;20448;-60
2022/07/18 01:40:55;;;;;;;4.83;3.83;;;15.60;54.50;;;;;;4981267;28;20420;-59
2022/07/18 01:43:21;;;;;;;4.30;3.90;;;15.60;54.50;;;;;;4979594;28;20519;-60
2022/07/18 01:45:47;;;;;;;5.83;3.80;;;15.60;54.70;;;;;;4980282;28;20436;-59
2022/07/18 01:48:12;;;;;;;4.83;4.30;;;15.50;54.70;;;;;;4982893;28;20431;-59
2022/07/18 01:50:38;;;;;;;4.40;4.10;;;15.50;54.80;;;;;;4979971;28;20186;-59
2022/07/18 01:53:04;;;;;;;5.73;4.50;;;15.50;54.90;;;;;;4985972;28;20187;-60
2022/07/18 01:55:29;;;;;;;4.50;4.03;;;15.50;55.10;;;;;;4992512;28;20172;-59
2022/07/18 01:57:55;;;;;;;5.13;4.37;;;15.50;55.30;;;;;;4992781;28;20596;-60
2022/07/18 02:00:20;;;;;;;4.77;4.37;;;15.40;55.50;;;;;;4990444;28;20257;-59
2022/07/18 02:02:46;;;;;;;4.93;4.47;;;15.40;55.50;;;;;;4994364;28;20176;-59
2022/07/18 02:05:12;;;;;;;4.60;4.20;;;15.30;55.60;;;;;;4999110;28;20181;-59
2022/07/18 02:07:40;;;;;;;4.80;4.40;;;15.30;55.90;;;;;;4984396;28;20218;-60
2022/07/18 02:10:18;;;;;;;4.57;4.17;;;15.30;56.00;;;;;;4980782;28;20187;-60
2022/07/18 02:12:43;;;;;;;5.27;4.63;;;15.30;56.00;;;;;;4976350;28;20543;-60
2022/07/18 02:15:11;;;;;;;3.90;3.60;;;15.20;55.90;;;;;;4980496;28;20468;-61
2022/07/18 02:17:37;;;;;;;6.63;4.80;;;15.20;56.00;;;;;;4988009;28;20602;-60
2022/07/18 02:20:08;;;;;;;4.93;4.30;;;15.20;56.00;;;;;;4991833;28;20432;-60
2022/07/18 02:22:34;;;;;;;4.83;4.43;;;15.20;56.00;;;;;;4987713;28;20431;-60
2022/07/18 02:25:00;;;;;;;5.30;4.70;;;15.20;56.10;;;;;;4974694;28;20459;-60
2022/07/18 02:27:26;;;;;;;4.90;4.47;;;15.20;56.30;;;;;;4980431;28;20245;-60
2022/07/18 02:29:52;;;;;;;6.17;4.20;;;15.10;56.30;;;;;;4980036;28;20988;-59
2022/07/18 02:32:18;;;;;;;6.50;5.37;;;15.10;56.60;;;;;;4980010;28;20193;-60
2022/07/18 02:34:44;;;;;;;5.83;4.40;;;15.10;56.90;;;;;;4977280;28;20233;-60
2022/07/18 02:37:10;;;;;;;5.33;4.67;;;15.00;56.90;;;;;;4978673;28;21064;-60
2022/07/18 02:39:36;;;;;;;5.60;4.40;;;15.00;57.00;;;;;;4975866;28;20930;-59
2022/07/18 02:42:03;;;;;;;5.47;4.97;;;15.00;57.10;;;;;;4977476;28;20185;-60
2022/07/18 02:44:28;;;;;;;5.40;4.90;;;14.90;57.30;;;;;;4977157;28;21165;-60
2022/07/18 02:46:54;;;;;;;7.67;5.13;;;14.90;57.80;;;;;;4977781;28;20547;-61
2022/07/18 02:49:29;;;;;;;5.67;4.90;;;14.80;57.70;;;;;;4981643;28;20181;-60
2022/07/18 02:52:05;;;;;;;5.23;4.67;;;14.80;58.00;;;;;;4983567;28;20176;-59
2022/07/18 02:54:32;;;;;;;6.20;4.20;;;14.70;58.10;;;;;;4979504;28;20590;-59
2022/07/18 02:56:58;;;;;;;4.93;4.53;;;14.70;58.10;;;;;;4972952;28;20452;-60
2022/07/18 02:59:25;;;;;;;4.50;4.10;;;14.70;58.30;;;;;;4980564;28;20431;-59
2022/07/18 03:01:52;;;;;;;8.80;4.57;;;14.60;58.40;;;;;;4979621;28;20646;-58
2022/07/18 03:04:18;;;;;;;4.40;4.00;;;14.60;58.50;;;;;;4979925;28;20851;-59
2022/07/18 03:06:44;;;;;;;4.90;4.50;;;14.60;59.20;;;;;;4977693;28;20468;-60
2022/07/18 03:09:10;;;;;;;5.33;4.70;;;14.50;58.70;;;;;;4978924;28;20883;-59
2022/07/18 03:11:36;;;;;;;8.53;5.07;;;14.50;59.00;;;;;;4979518;28;20476;-60
2022/07/18 03:14:02;;;;;;;5.33;4.83;;;14.40;58.90;;;;;;4982038;28;20197;-59
2022/07/18 03:16:27;;;;;;;5.40;4.63;;;14.40;59.30;;;;;;4978212;28;20735;-60
2022/07/18 03:18:53;;;;;;;5.13;4.63;;;14.40;59.50;;;;;;4980017;28;20177;-59
2022/07/18 03:21:19;;;;;;;5.80;5.20;;;14.30;59.50;;;;;;4978384;28;20215;-60
2022/07/18 03:23:45;;;;;;;5.30;4.80;;;14.30;59.70;;;;;;4980719;28;20992;-59
2022/07/18 03:26:11;;;;;;;6.10;4.70;;;14.30;60.10;;;;;;4985681;28;20535;-59
2022/07/18 03:28:37;;;;;;;4.80;4.40;;;14.30;59.90;;;;;;4981557;28;20646;-60
2022/07/18 03:31:03;;;;;;;5.97;4.63;;;14.30;60.00;;;;;;4985349;28;20784;-59
2022/07/18 03:33:29;;;;;;;6.70;5.50;;;14.20;59.90;;;;;;4982813;28;20596;-59
2022/07/18 03:35:55;;;;;;;7.13;5.00;;;14.20;60.00;;;;;;4977724;28;20460;-58
2022/07/18 03:38:22;;;;;;;5.80;5.20;;;14.20;60.10;;;;;;4978912;28;20201;-60
2022/07/18 03:40:47;;;;;;;6.20;5.03;;;14.20;60.30;;;;;;4978389;28;20455;-60
2022/07/18 03:43:13;;;;;;;5.00;4.60;;;14.10;60.40;;;;;;4978077;28;20637;-59
2022/07/18 03:45:38;;;;;;;6.67;5.00;;;14.10;61.10;;;;;;4976665;28;20181;-59
2022/07/18 03:48:04;;;;;;;8.77;5.43;;;14.00;61.00;;;;;;4979922;28;20177;-60
2022/07/18 03:50:30;;;;;;;6.13;5.53;;;14.00;61.40;;;;;;4979599;28;20303;-59
2022/07/18 03:52:56;;;;;;;5.83;5.33;;;13.90;61.70;;;;;;4972476;28;20185;-58
2022/07/18 03:55:22;;;;;;;7.43;5.30;;;13.90;62.00;;;;;;4973578;28;20433;-60
2022/07/18 03:57:48;;;;;;;5.50;5.00;;;13.90;62.20;;;;;;4980215;28;20259;-60
2022/07/18 04:00:14;;;;;;;5.23;4.83;;;13.90;62.30;;;;;;4978403;28;20425;-58
2022/07/18 04:02:41;;;;;;;5.53;5.03;;;13.90;62.20;;;;;;4978280;28;20178;-58
2022/07/18 04:05:08;;;;;;;12.17;4.97;;;13.90;62.50;;;;;;4976158;28;20522;-57
2022/07/18 04:07:34;;;;;;;4.80;4.40;;;13.90;62.40;;;;;;4976717;28;20463;-58
2022/07/18 04:09:59;;;;;;;5.73;4.90;;;13.90;62.60;;;;;;4981316;28;20440;-57
2022/07/18 04:12:25;;;;;;;6.50;5.10;;;13.90;62.50;;;;;;4979635;28;20192;-60
2022/07/18 04:14:51;;;;;;;5.57;5.07;;;13.90;63.10;;;;;;4977182;28;20211;-60
2022/07/18 04:17:16;;;;;;;6.23;5.63;;;13.90;63.00;;;;;;4976480;28;20580;-59
2022/07/18 04:19:42;;;;;;;5.70;5.20;;;13.90;63.20;;;;;;4972247;28;20665;-60
2022/07/18 04:22:08;;;;;;;6.70;5.47;;;13.80;63.20;;;;;;4974415;28;20209;-55
2022/07/18 04:24:33;;;;;;;7.57;5.50;;;13.90;63.50;;;;;;4980523;28;20327;-60
2022/07/18 04:26:59;;;;;;;7.40;5.47;;;13.90;63.90;;;;;;4971669;28;20726;-60
2022/07/18 04:29:25;;;;;;;5.77;5.27;;;13.90;63.80;;;;;;4968690;28;20193;-61
2022/07/18 04:31:50;;;;;;;6.23;5.63;;;13.90;63.70;;;;;;4977918;28;20262;-61
2022/07/18 04:34:16;;;;;;;6.20;5.60;;;13.90;63.10;;;;;;4975151;28;20545;-60
2022/07/18 04:36:42;;;;;;;7.83;6.13;;;13.90;63.50;;;;;;4977219;28;20232;-63
2022/07/18 04:39:08;;;;;;;7.60;5.73;;;14.00;63.60;;;;;;4982901;28;20189;-56
2022/07/18 04:41:33;;;;;;;7.87;4.90;;;14.00;63.70;;;;;;4984714;28;20276;-56
2022/07/18 04:43:59;;;;;;;6.70;5.50;;;14.00;63.80;;;;;;4985434;28;20556;-56
2022/07/18 04:46:24;;;;;;;6.77;5.90;;;14.00;63.90;;;;;;4985375;28;20747;-60
2022/07/18 04:48:50;;;;;;;6.03;5.50;;;14.10;64.20;;;;;;4983940;28;20208;-65
2022/07/18 04:51:16;;;;;;;7.27;6.57;;;14.20;64.30;;;;;;4980696;28;20255;-61
2022/07/18 04:53:41;;;;;;;6.00;5.40;;;14.20;63.70;;;;;;4977886;28;20206;-61
2022/07/18 04:56:07;;;;;;;7.53;6.30;;;14.30;63.40;;;;;;4981335;28;20578;-61
2022/07/18 04:58:33;;;;;;;7.10;6.33;;;14.40;63.20;;;;;;4984911;28;20204;-59
2022/07/18 05:00:58;;;;;;;6.20;5.60;;;14.40;63.40;;;;;;4985611;28;20683;-60
2022/07/18 05:03:24;;;;;;;6.20;5.67;;;14.50;62.60;;;;;;4989518;28;20193;-60
2022/07/18 05:05:50;;;;;;;7.10;5.77;;;14.60;62.30;;;;;;4984717;28;20185;-60
2022/07/18 05:08:15;;;;;;;6.57;5.20;;;14.60;62.20;;;;;;4990908;28;20687;-60
2022/07/18 05:10:41;;;;;;;5.77;4.97;;;14.70;61.80;;;;;;4981825;28;20185;-60
2022/07/18 05:13:07;;;;;;;5.80;5.20;;;14.80;61.50;;;;;;4976541;28;20188;-61
2022/07/18 05:15:32;;;;;;;7.40;5.50;;;14.80;60.90;;;;;;4977739;28;20215;-60
2022/07/18 05:17:58;;;;;;;6.10;5.50;;;14.90;60.30;;;;;;4986382;28;20300;-60
2022/07/18 05:20:25;;;;;;;5.90;5.30;;;14.90;60.30;;;;;;4989521;28;20177;-61
2022/07/18 05:22:52;;;;;;;5.80;5.30;;;15.00;60.50;;;;;;4990977;28;20177;-60
2022/07/18 05:25:18;;;;;;;5.23;4.83;;;15.10;60.10;;;;;;4987886;28;20472;-59
2022/07/18 05:27:44;;;;;;;6.70;5.43;;;15.20;59.90;;;;;;4988885;28;20961;-60
2022/07/18 05:30:12;;;;;;;5.00;4.60;;;15.20;59.50;;;;;;4991375;28;20467;-60
2022/07/18 05:32:40;;;;;;;5.80;4.30;;;15.30;59.00;;;;;;4990449;28;20193;-60
2022/07/18 05:35:06;;;;;;;7.20;5.20;;;15.40;58.80;;;;;;4980566;28;20484;-60
2022/07/18 05:37:35;;;;;;;6.23;4.93;;;15.40;58.60;;;;;;4987089;28;20965;-60
2022/07/18 05:40:01;;;;;;;6.00;5.13;;;15.40;58.60;;;;;;4988817;28;20440;-60
2022/07/18 05:42:26;;;;;;;6.70;4.97;;;15.50;58.40;;;;;;4985142;28;20439;-60
2022/07/18 05:44:52;;;;;;;6.30;5.70;;;15.50;58.20;;;;;;4990250;28;20903;-60
2022/07/18 05:47:17;;;;;;;6.53;5.40;;;15.50;58.30;;;;;;4987131;28;20700;-60
2022/07/18 05:49:43;;;;;;;6.00;5.40;;;15.60;58.60;;;;;;4988041;28;20872;-60
2022/07/18 05:52:09;;;;;;;5.47;4.97;;;15.60;58.70;;;;;;4986152;28;20174;-61
2022/07/18 05:54:34;;;;;;;6.57;4.87;;;15.70;59.20;;;;;;4981117;28;20206;-60
2022/07/18 05:57:00;;;;;;;5.40;4.90;;;15.90;59.20;;;;;;4972484;28;20603;-60
2022/07/18 05:59:26;;;;;;;5.40;4.90;;;16.00;59.50;;;;;;4983058;28;20542;-60
2022/07/18 06:01:51;;;;;;;6.30;5.10;;;16.10;58.80;;;;;;4992403;28;20684;-61
2022/07/18 06:04:17;;;;;;;5.50;5.00;;;16.20;58.00;;;;;;4972408;28;20190;-61
2022/07/18 06:06:44;;;;;;;7.50;5.17;;;16.30;57.90;;;;;;4979636;28;20189;-60
2022/07/18 06:09:10;;;;;;;5.80;5.00;;;16.40;57.50;;;;;;4990432;28;20255;-60
2022/07/18 06:11:36;;;;;;;5.70;5.20;;;16.60;57.50;;;;;;4989469;28;20520;-61
2022/07/18 06:14:02;;;;;;;6.57;4.70;;;16.60;56.40;;;;;;4980787;28;20953;-60
2022/07/18 06:16:29;;;;;;;7.70;5.10;;;16.70;56.00;;;;;;4980714;28;20201;-61
2022/07/18 06:18:55;;;;;;;5.67;4.37;;;16.80;55.80;;;;;;4989159;28;20515;-60
2022/07/18 06:21:21;;;;;;;5.10;4.60;;;16.90;56.10;;;;;;5001690;28;20813;-60
2022/07/18 06:23:47;;;;;;;8.00;5.90;;;17.00;56.50;;;;;;4987669;28;20441;-60
2022/07/18 06:26:12;;;;;;;7.57;5.40;;;17.10;56.20;;;;;;4973399;28;20611;-61
2022/07/18 06:28:38;;;;;;;9.07;5.57;;;17.20;56.10;;;;;;4988422;28;20216;-61
2022/07/18 06:31:04;;;;;;;9.70;5.47;;;17.30;56.40;;;;;;4990706;28;20569;-60
2022/07/18 06:33:29;;;;;;;7.53;5.63;;;17.40;55.90;;;;;;4991153;28;20212;-61
2022/07/18 06:35:56;;;;;;;6.20;5.03;;;17.60;55.50;;;;;;4990173;28;20247;-61
2022/07/18 06:38:21;;;;;;;5.63;5.03;;;17.70;55.40;;;;;;4991819;28;20173;-61
2022/07/18 06:40:47;;;;;;;6.37;4.67;;;17.80;55.40;;;;;;4986797;28;20571;-61
2022/07/18 06:43:18;;;;;;;7.80;4.80;;;17.90;54.80;;;;;;4983471;28;20376;-61
2022/07/18 06:45:45;;;;;;;5.30;4.23;;;18.00;54.70;;;;;;4982008;28;20192;-61
2022/07/18 06:48:10;;;;;;;5.57;4.40;;;18.10;54.00;;;;;;4987029;28;20412;-61
2022/07/18 06:50:36;;;;;;;10.90;4.50;;;18.20;54.10;;;;;;4987789;28;20912;-61
2022/07/18 06:53:02;;;;;;;5.57;5.03;;;18.30;53.70;;;;;;4985293;28;20165;-61
2022/07/18 06:55:27;;;;;;;7.27;5.53;;;18.40;52.90;;;;;;4988331;28;20236;-61
2022/07/18 06:57:53;;;;;;;7.30;5.00;;;18.60;52.70;;;;;;4988099;28;20327;-61
2022/07/18 07:00:18;;;;;;;6.17;5.23;;;18.70;52.50;;;;;;4983212;28;20178;-60
2022/07/18 07:02:46;;;;;;;12.63;5.40;;;18.80;52.30;;;;;;4984266;28;20165;-61
2022/07/18 07:05:12;;;;;;;7.63;5.40;;;19.00;52.40;;;;;;4986455;28;20181;-61
2022/07/18 07:07:38;;;;;;;11.53;5.30;;;19.10;52.50;;;;;;4986064;28;20480;-61
2022/07/18 07:10:05;;;;;;;7.07;5.70;;;19.30;51.90;;;;;;4984742;28;20855;-61
2022/07/18 07:12:37;;;;;;;8.10;5.20;;;19.40;51.90;;;;;;4981648;28;20444;-61
2022/07/18 07:15:03;;;;;;;8.20;4.80;;;19.50;51.90;;;;;;4987511;28;20455;-61
2022/07/18 07:17:29;;;;;;;7.60;5.30;;;19.70;51.80;;;;;;4986108;28;20475;-62
2022/07/18 07:19:55;;;;;;;6.67;5.13;;;19.80;51.80;;;;;;4982813;28;20178;-61
2022/07/18 07:22:23;;;;;;;7.97;6.57;;;20.00;51.80;;;;;;4988986;28;20431;-61
2022/07/18 07:24:49;;;;;;;14.63;5.60;;;20.10;51.70;;;;;;4989311;28;20185;-61
2022/07/18 07:27:15;;;;;;;10.30;6.27;;;20.30;51.60;;;;;;4982166;28;20463;-61
2022/07/18 07:29:40;;;;;;;9.80;6.00;;;20.50;51.70;;;;;;4991870;28;20731;-61
2022/07/18 07:32:06;;;;;;;23.03;6.87;;;20.60;51.70;;;;;;4986846;28;20193;-61
2022/07/18 07:34:32;;;;;;;9.30;6.63;;;20.80;51.60;;;;;;4982545;28;20252;-61
2022/07/18 07:36:58;;;;;;;6.40;5.80;;;20.90;51.00;;;;;;4992372;28;20193;-62
2022/07/18 07:39:23;;;;;;;9.87;6.20;;;21.10;50.60;;;;;;4984729;28;20178;-62
2022/07/18 07:41:50;;;;;;;8.90;5.70;;;21.20;50.30;;;;;;4988237;28;20170;-61
2022/07/18 07:44:16;;;;;;;6.10;5.27;;;21.30;50.70;;;;;;4987222;28;20200;-61
2022/07/18 07:46:41;;;;;;;6.63;4.80;;;21.50;49.80;;;;;;4987524;28;20782;-61
2022/07/18 07:49:07;;;;;;;7.70;4.80;;;21.70;49.50;;;;;;4987375;28;20180;-61
2022/07/18 07:51:33;;;;;;;5.20;4.70;;;21.80;49.10;;;;;;4981960;28;20233;-61
2022/07/18 07:53:58;;;;;;;7.20;5.10;;;22.00;47.80;;;;;;4985073;28;20197;-61
2022/07/18 07:56:24;;;;;;;8.63;4.30;;;22.10;47.60;;;;;;4986565;28;20194;-61
2022/07/18 07:58:49;;;;;;;10.03;4.43;;;22.20;47.90;;;;;;4985986;28;20323;-61
2022/07/18 08:01:17;;;;;;;5.47;3.80;;;22.50;48.10;;;;;;4986951;28;20268;-61
2022/07/18 08:03:44;;;;;;;4.60;3.83;;;22.70;46.90;;;;;;4985012;28;20210;-61
2022/07/18 08:06:10;;;;;;;4.73;4.10;;;22.80;46.40;;;;;;4988782;28;20440;-61
2022/07/18 08:08:36;;;;;;;4.53;3.30;;;23.00;45.90;;;;;;4978495;28;20964;-61
2022/07/18 08:11:02;;;;;;;6.90;4.57;;;23.10;45.00;;;;;;4981139;28;20436;-62
2022/07/18 08:13:27;;;;;;;6.73;4.23;;;23.20;44.70;;;;;;4975978;28;20197;-62
2022/07/18 08:15:53;;;;;;;5.63;4.00;;;23.30;45.30;;;;;;4984730;28;20174;-61
2022/07/18 08:18:18;;;;;;;6.13;4.00;;;23.50;45.40;;;;;;4988991;28;20181;-60
2022/07/18 08:20:44;;;;;;;6.90;4.03;;;23.60;44.70;;;;;;4999511;28;20184;-61
2022/07/18 08:23:11;;;;;;;5.73;4.33;;;23.70;44.10;;;;;;4975502;28;20549;-61
2022/07/18 08:25:39;;;;;;;4.50;3.40;;;23.80;44.10;;;;;;4984374;28;20170;-61
2022/07/18 08:28:06;;;;;;;5.40;3.07;;;23.90;43.30;;;;;;4979031;28;20440;-62
2022/07/18 08:30:32;;;;;;;3.53;3.23;;;24.00;43.20;;;;;;4991772;28;20955;-61
2022/07/18 08:33:00;;;;;;;10.27;4.03;;;24.10;43.10;;;;;;4987133;28;20428;-61
2022/07/18 08:35:27;;;;;;;6.00;3.37;;;24.30;42.60;;;;;;4990174;28;20853;-62
2022/07/18 08:37:52;;;;;;;11.43;4.80;;;24.40;41.60;;;;;;4988188;28;20451;-61
2022/07/18 08:40:18;;;;;;;6.87;3.83;;;24.50;42.60;;;;;;4987020;28;21009;-61
2022/07/18 08:42:44;;;;;;;8.93;4.10;;;24.70;42.50;;;;;;4980519;28;20185;-62
2022/07/18 08:45:10;;;;;;;5.00;3.57;;;24.80;42.00;;;;;;4980590;28;20933;-62
2022/07/18 08:47:36;;;;;;;3.90;3.50;;;25.00;41.30;;;;;;4978904;28;20205;-61
2022/07/18 08:50:03;;;;;;;5.20;3.23;;;25.10;41.20;;;;;;4981123;28;20440;-61
2022/07/18 08:52:30;;;;;;;3.83;3.27;;;25.30;40.50;;;;;;4984253;28;20184;-62
2022/07/18 08:54:56;;;;;;;4.80;3.63;;;25.40;39.50;;;;;;4981468;28;20467;-62
2022/07/18 08:57:22;;;;;;;5.93;3.77;;;25.50;38.70;;;;;;4978934;28;20533;-62
2022/07/18 08:59:48;;;;;;;6.90;3.30;;;25.50;38.20;;;;;;4975115;28;21004;-62
2022/07/18 09:02:14;;;;;;;3.63;3.30;;;25.60;38.40;;;;;;4984064;28;20416;-62
2022/07/18 09:04:42;;;;;;;6.23;2.97;;;25.60;38.50;;;;;;4985753;28;20181;-62
2022/07/18 09:07:09;;;;;;;3.17;2.87;;;25.70;38.00;;;;;;4978190;28;20295;-62
2022/07/18 09:09:36;;;;;;;5.33;2.90;;;25.70;37.10;;;;;;4983953;28;20439;-62
2022/07/18 09:12:05;;;;;;;4.30;2.93;;;25.80;36.70;;;;;;4980862;28;20882;-62
2022/07/18 09:14:39;;;;;;;2.80;2.60;;;25.90;37.00;;;;;;4981760;28;20614;-61
2022/07/18 09:17:23;;;;;;;10.50;2.80;;;26.00;35.80;;;;;;4983071;28;20450;-62
2022/07/18 09:20:10;;;;;;;5.23;2.80;;;26.00;35.90;;;;;;4976435;28;20868;-61
2022/07/18 09:22:38;;;;;;;3.70;2.73;;;26.20;36.60;;;;;;4983288;28;20439;-62
2022/07/18 09:25:08;;;;;;;4.73;2.80;;;26.30;36.70;;;;;;4979023;28;20431;-62
2022/07/18 09:27:37;;;;;;;3.10;2.80;;;26.50;36.10;;;;;;4978131;28;21039;-62
2022/07/18 09:30:09;;;;;;;2.50;2.30;;;26.60;33.90;;;;;;4983761;28;20450;-61
2022/07/18 09:32:36;;;;;;;3.80;2.70;;;26.60;33.60;;;;;;4977146;28;20497;-62
2022/07/18 09:35:06;;;;;;;2.80;2.60;;;26.70;33.50;;;;;;4978326;28;21136;-62
2022/07/18 09:37:33;;;;;;;3.47;2.27;;;26.90;33.00;;;;;;4985655;28;20485;-62
2022/07/18 09:40:21;;;;;;;2.93;2.57;;;27.00;33.80;;;;;;4976148;28;20436;-62
2022/07/18 09:42:51;;;;;;;4.90;2.40;;;27.20;33.90;;;;;;4964948;28;20451;-62
2022/07/18 09:45:25;;;;;;;3.93;2.43;;;27.40;33.00;;;;;;4992316;28;21094;-59
2022/07/18 09:47:57;;;;;;;6.53;2.80;;;27.40;32.60;;;;;;4985786;28;20205;-62
2022/07/18 09:50:32;;;;;;;3.10;2.57;;;27.50;32.30;;;;;;4976559;28;20192;-61
2022/07/18 09:53:07;;;;;;;7.97;2.40;;;27.60;32.40;;;;;;4984111;28;20188;-60
2022/07/18 09:55:33;;;;;;;2.67;2.47;;;27.70;31.90;;;;;;4982107;28;20715;-60
2022/07/18 09:58:04;;;;;;;3.40;2.30;;;27.80;32.10;;;;;;4986444;28;20215;-60
2022/07/18 10:00:34;;;;;;;3.73;2.37;;;27.90;31.40;;;;;;4979764;28;20181;-60
2022/07/18 10:03:01;;;;;;;3.10;2.80;;;28.00;31.80;;;;;;4983873;28;20647;-61
2022/07/18 10:05:28;;;;;;;3.20;2.90;;;28.10;32.30;;;;;;4985429;28;20216;-61
2022/07/18 10:07:54;;;;;;;5.00;2.63;;;28.30;32.20;;;;;;4983877;28;20291;-60
2022/07/18 10:10:21;;;;;;;7.53;2.37;;;28.40;32.80;;;;;;4982897;28;20624;-61
2022/07/18 10:12:47;;;;;;;5.20;2.60;;;28.60;32.70;;;;;;4983234;28;20268;-61
2022/07/18 10:15:14;;;;;;;2.50;2.30;;;28.80;32.20;;;;;;4996105;28;20215;-62
2022/07/18 10:17:40;;;;;;;3.53;2.30;;;28.90;31.40;;;;;;4985829;28;20323;-63
2022/07/18 10:20:07;;;;;;;2.45;2.25;;;29.00;30.60;;;;;;4983266;28;20205;-62
2022/07/18 10:22:42;;;;;;;4.57;2.05;;;29.10;30.80;;;;;;4986422;28;20181;-62
2022/07/18 10:25:11;;;;;;;3.78;2.55;;;29.10;30.00;;;;;;4976917;28;20827;-60
2022/07/18 10:28:10;;;;;;;2.40;2.20;;;29.20;30.30;;;;;;4979845;28;20209;-60
2022/07/18 10:30:49;;;;;;;2.72;2.20;;;29.40;30.50;;;;;;4983869;28;20181;-63
2022/07/18 10:33:38;;;;;;;4.93;2.55;;;29.50;29.80;;;;;;4979403;28;20699;-61
2022/07/18 10:36:05;;;;;;;3.22;2.17;;;29.60;29.80;;;;;;4981091;28;20236;-62
2022/07/18 10:38:31;;;;;;;5.47;2.40;;;29.70;30.00;;;;;;4984156;28;20185;-61
2022/07/18 10:41:12;;;;;;;2.40;2.20;;;29.70;28.70;;;;;;4981804;28;20180;-61
2022/07/18 10:43:41;;;;;;;2.50;2.30;;;29.60;28.50;;;;;;4984111;28;20184;-61
2022/07/18 10:46:09;;;;;;;4.30;2.50;;;29.50;28.80;;;;;;4984947;28;20574;-60
2022/07/18 10:48:37;;;;;;;4.40;2.28;;;29.40;29.30;;;;;;4980479;28;20191;-61
2022/07/18 10:51:12;;;;;;;2.20;2.00;;;29.50;30.00;;;;;;4992195;28;20188;-60
2022/07/18 10:53:53;;;;;;;2.92;2.30;;;29.70;29.70;;;;;;4983205;28;20200;-61
2022/07/18 10:56:39;;;;;;;1.98;1.77;;;29.80;29.00;;;;;;4985398;28;20292;-61
2022/07/18 10:59:17;;;;;;;4.20;2.47;;;29.90;29.50;;;;;;4975283;28;20189;-60
2022/07/18 11:01:52;;;;;;;3.58;2.08;;;30.00;29.40;;;;;;4983680;28;20177;-61
2022/07/18 11:04:34;;;;;;;2.83;2.03;;;30.10;28.60;;;;;;4984583;28;20740;-61
2022/07/18 11:07:13;;;;;;;3.75;2.08;;;30.20;28.60;;;;;;4978219;28;20212;-61
2022/07/18 11:09:45;;;;;;;7.13;2.10;;;30.30;28.60;;;;;;4982198;28;20181;-61
2022/07/18 11:12:26;;;;;;;6.97;2.38;;;30.40;28.40;;;;;;4983186;28;20658;-62
2022/07/18 11:15:01;;;;;;;3.90;2.25;;;30.50;28.40;;;;;;4970990;28;20257;-62
2022/07/18 11:17:51;;;;;;;2.58;2.10;;;30.60;29.00;;;;;;4972595;28;20198;-62
2022/07/18 11:20:34;;;;;;;5.55;2.65;;;30.70;28.30;;;;;;4977317;28;20194;-62
2022/07/18 11:23:13;;;;;;;2.53;2.25;;;30.80;27.90;;;;;;4980337;28;20179;-62
2022/07/18 11:25:39;;;;;;;2.30;2.20;;;30.90;28.40;;;;;;4974542;28;20206;-60
2022/07/18 11:28:08;;;;;;;4.50;2.65;;;31.10;28.90;;;;;;4977001;28;20322;-59
2022/07/18 11:30:35;;;;;;;2.75;2.30;;;31.30;29.10;;;;;;4970554;28;20261;-59
2022/07/18 11:33:01;;;;;;;2.83;2.50;;;31.40;29.40;;;;;;4982044;28;20221;-59
2022/07/18 11:35:26;;;;;;;3.22;2.30;;;31.50;29.00;;;;;;4975661;28;20304;-60
2022/07/18 11:37:52;;;;;;;3.25;2.63;;;31.50;29.10;;;;;;4988522;28;20573;-60
2022/07/18 11:40:18;;;;;;;2.80;2.60;;;31.60;28.30;;;;;;4980386;28;20205;-59
2022/07/18 11:42:44;;;;;;;4.25;2.40;;;31.60;28.40;;;;;;4978829;28;20973;-61
2022/07/18 11:45:12;;;;;;;3.92;2.20;;;31.70;27.40;;;;;;4974516;28;20185;-62
2022/07/18 11:47:50;;;;;;;3.70;2.10;;;31.80;27.70;;;;;;4980353;28;20224;-62
2022/07/18 11:50:17;;;;;;;2.78;2.30;;;31.90;27.30;;;;;;4979957;28;20264;-61
2022/07/18 11:52:45;;;;;;;2.30;2.10;;;31.90;27.90;;;;;;4980208;28;20213;-62
2022/07/18 11:55:12;;;;;;;3.58;2.10;;;31.90;27.80;;;;;;4982239;28;20227;-62
2022/07/18 11:57:38;;;;;;;3.20;2.30;;;31.90;26.40;;;;;;4988784;28;20701;-62
2022/07/18 12:00:16;;;;;;;2.72;2.10;;;31.90;27.20;;;;;;4985321;28;20188;-62
2022/07/18 12:03:07;;;;;;;2.47;2.28;;;31.80;26.80;;;;;;4984300;28;20184;-62
2022/07/18 12:05:36;;;;;;;3.03;2.17;;;31.90;27.30;;;;;;4981946;28;20180;-60
2022/07/18 12:08:28;;;;;;;4.63;2.15;;;32.00;28.00;;;;;;4980837;28;20268;-62
2022/07/18 12:11:04;;;;;;;3.17;2.42;;;32.30;27.80;;;;;;4980979;28;20181;-61
2022/07/18 12:13:51;;;;;;;4.32;2.33;;;32.60;27.90;;;;;;4983956;28;20208;-62
2022/07/18 12:16:38;;;;;;;3.38;2.10;;;32.80;27.20;;;;;;4985254;28;20211;-61
2022/07/18 12:19:11;;;;;;;5.45;2.10;;;32.90;27.20;;;;;;4978999;28;20185;-62
2022/07/18 12:21:43;;;;;;;3.95;2.30;;;33.10;27.80;;;;;;4987353;28;20246;-61
2022/07/18 12:24:24;;;;;;;12.13;3.00;;;33.20;26.70;;;;;;4987982;28;20177;-60
2022/07/18 12:27:21;;;;;;;4.78;2.55;;;33.20;27.20;;;;;;4982306;28;20193;-61
2022/07/18 12:29:56;;;;;;;6.13;2.58;;;33.40;27.30;;;;;;4989565;28;20254;-61
2022/07/18 12:32:30;;;;;;;4.38;2.50;;;33.50;26.40;;;;;;4997371;28;20186;-62
2022/07/18 12:35:01;;;;;;;6.45;2.10;;;33.60;26.50;;;;;;4984627;28;20288;-61
2022/07/18 12:37:32;;;;;;;1.88;1.77;;;33.50;25.50;;;;;;4983219;28;20242;-62
2022/07/18 12:40:09;;;;;;;2.33;2.08;;;33.50;26.30;;;;;;4981438;28;20183;-61
2022/07/18 12:42:41;;;;;;;4.18;2.60;;;33.60;26.80;;;;;;4991047;28;20187;-61
2022/07/18 12:45:11;;;;;;;4.38;2.65;;;33.80;27.40;;;;;;4984200;28;20183;-61
2022/07/18 12:47:38;;;;;;;7.43;2.40;;;33.90;27.20;;;;;;4990919;28;20196;-61
2022/07/18 12:50:05;;;;;;;5.60;2.60;;;34.00;26.70;;;;;;4978729;28;20184;-61